Time;durP1;ratioP1;P1;durP2;ratioP2;P2;SDS_P1;SDS_P2;PMS_P1;PMS_P2;Temp;Humidity;BMP_temperature;BMP_pressure;BME280_temperature;BME280_humidity;BME280_pressure;Samples;Min_cycle;Max_cycle;Signal;HPM_P1;HPM_P2
2022/01/11 00:01:15;;;;;;;38.13;22.63;;;;;;;;;;4907736;28;20287;-64
2022/01/11 00:03:42;;;;;;;40.97;23.90;;;;;;;;;;4914830;28;20263;-65
2022/01/11 00:08:45;;;;;;;38.30;21.17;;;;;;;;;;4912712;28;20696;-65
2022/01/11 00:11:11;;;;;;;39.40;22.53;;;;;;;;;;4881870;29;20235;-64
2022/01/11 00:13:37;;;;;;;40.53;23.17;;;;;;;;;;4911829;28;20238;-64
2022/01/11 00:16:03;;;;;;;38.17;22.83;;;;;;;;;;4919643;28;20263;-64
2022/01/11 00:18:29;;;;;;;44.80;24.83;;;;;;;;;;4884783;29;20236;-64
2022/01/11 00:20:55;;;;;;;42.47;23.33;;;;;;;;;;4906588;28;20235;-64
2022/01/11 00:25:52;;;;;;;41.17;23.83;;;;;;;;;;4894554;28;20778;-65
2022/01/11 00:28:18;;;;;;;39.00;23.17;;;;;;;;;;4906346;28;20239;-65
2022/01/11 00:30:46;;;;;;;40.90;22.87;;;;;;;;;;4916205;28;20243;-65
2022/01/11 00:33:38;;;;;;;39.70;23.13;;;;;;;;;;4882364;28;21005;-65
2022/01/11 00:36:00;;;;;;;44.10;23.83;;;;;;;;;;4908051;28;20258;-65
2022/01/11 00:38:27;;;;;;;37.47;22.43;;;;;;;;;;4885267;28;20242;-65
2022/01/11 00:40:55;;;;;;;41.20;23.57;;;;;;;;;;4899460;28;20239;-65
2022/01/11 00:43:21;;;;;;;43.13;24.03;;;;;;;;;;4884079;28;20713;-65
2022/01/11 00:45:48;;;;;;;40.40;24.10;;;;;;;;;;4911722;28;20234;-65
2022/01/11 00:48:14;;;;;;;43.10;23.60;;;;;;;;;;4881264;28;20279;-65
2022/01/11 00:50:40;;;;;;;38.70;22.57;;;;;;;;;;4859540;28;20236;-65
2022/01/11 00:53:06;;;;;;;36.30;22.03;;;;;;;;;;4899666;28;20311;-65
2022/01/11 00:55:32;;;;;;;38.70;22.40;;;;;;;;;;4883478;29;20227;-65
2022/01/11 00:57:58;;;;;;;35.63;21.60;;;;;;;;;;4880201;29;20693;-65
2022/01/11 01:00:25;;;;;;;36.63;21.83;;;;;;;;;;4909019;28;20222;-65
2022/01/11 01:02:50;;;;;;;37.10;21.20;;;;;;;;;;4899441;28;20239;-65
2022/01/11 01:05:17;;;;;;;36.73;21.73;;;;;;;;;;4897050;28;20302;-65
2022/01/11 01:07:46;;;;;;;37.60;22.03;;;;;;;;;;4887360;28;20253;-65
2022/01/11 01:10:15;;;;;;;37.00;22.50;;;;;;;;;;4865147;28;20965;-65
2022/01/11 01:12:41;;;;;;;35.73;21.83;;;;;;;;;;4885419;28;20244;-65
2022/01/11 01:15:07;;;;;;;35.17;21.37;;;;;;;;;;4903798;28;20259;-65
2022/01/11 01:17:33;;;;;;;37.57;21.57;;;;;;;;;;4877589;28;20232;-65
2022/01/11 01:19:59;;;;;;;34.23;21.00;;;;;;;;;;4880856;28;20243;-64
2022/01/11 01:22:25;;;;;;;33.57;21.23;;;;;;;;;;4882118;28;20243;-65
2022/01/11 01:24:51;;;;;;;35.67;21.03;;;;;;;;;;4903913;28;20393;-65
2022/01/11 01:27:17;;;;;;;35.73;22.17;;;;;;;;;;4910873;28;20271;-65
2022/01/11 01:29:43;;;;;;;34.73;21.10;;;;;;;;;;4875480;28;20307;-65
2022/01/11 01:32:09;;;;;;;36.60;22.70;;;;;;;;;;4879944;28;20760;-65
2022/01/11 01:34:35;;;;;;;37.93;23.43;;;;;;;;;;4879736;28;20747;-65
2022/01/11 01:37:01;;;;;;;36.47;20.73;;;;;;;;;;4903353;28;20255;-65
2022/01/11 01:39:27;;;;;;;39.73;23.30;;;;;;;;;;4883107;28;20232;-65
2022/01/11 01:41:53;;;;;;;39.70;23.03;;;;;;;;;;4889500;28;20243;-65
2022/01/11 01:44:19;;;;;;;40.23;22.57;;;;;;;;;;4885808;28;20228;-65
2022/01/11 01:46:45;;;;;;;42.60;23.47;;;;;;;;;;4868806;28;20231;-65
2022/01/11 01:49:16;;;;;;;45.50;24.30;;;;;;;;;;4893707;28;21458;-65
2022/01/11 01:51:42;;;;;;;43.97;24.13;;;;;;;;;;4879672;28;20709;-65
2022/01/11 01:54:09;;;;;;;45.40;25.30;;;;;;;;;;4907674;28;20300;-64
2022/01/11 01:56:35;;;;;;;45.47;24.23;;;;;;;;;;4880554;28;20245;-65
2022/01/11 01:59:01;;;;;;;43.07;24.80;;;;;;;;;;4881345;28;20244;-65
2022/01/11 02:01:27;;;;;;;42.47;25.00;;;;;;;;;;4878233;28;20233;-65
2022/01/11 02:03:53;;;;;;;48.47;26.27;;;;;;;;;;4875168;28;20239;-65
2022/01/11 02:06:20;;;;;;;44.73;24.43;;;;;;;;;;4888975;28;20274;-64
2022/01/11 02:08:47;;;;;;;46.07;25.43;;;;;;;;;;4910646;28;20238;-65
2022/01/11 02:11:19;;;;;;;44.57;24.80;;;;;;;;;;4887889;28;20345;-64
2022/01/11 02:13:46;;;;;;;41.50;25.17;;;;;;;;;;4874959;28;21020;-65
2022/01/11 02:16:13;;;;;;;45.37;24.93;;;;;;;;;;4886675;28;20247;-65
2022/01/11 02:18:40;;;;;;;42.07;24.43;;;;;;;;;;4870819;28;20662;-65
2022/01/11 02:21:06;;;;;;;44.33;25.40;;;;;;;;;;4882754;28;20227;-65
2022/01/11 02:23:32;;;;;;;42.73;24.93;;;;;;;;;;4907755;28;20318;-64
2022/01/11 02:25:58;;;;;;;43.17;24.83;;;;;;;;;;4890561;28;20932;-64
2022/01/11 02:28:25;;;;;;;43.00;25.87;;;;;;;;;;4872873;28;20369;-64
2022/01/11 02:30:51;;;;;;;41.37;23.57;;;;;;;;;;4904939;28;20729;-64
2022/01/11 02:33:32;;;;;;;42.43;24.87;;;;;;;;;;4887705;28;20729;-64
2022/01/11 02:35:57;;;;;;;40.50;25.43;;;;;;;;;;4878074;28;20231;-64
2022/01/11 02:38:23;;;;;;;42.13;24.80;;;;;;;;;;4911171;28;20241;-64
2022/01/11 02:40:49;;;;;;;37.30;22.80;;;;;;;;;;4914236;28;20376;-64
2022/01/11 02:43:15;;;;;;;41.00;25.10;;;;;;;;;;4884372;28;20341;-64
2022/01/11 02:45:41;;;;;;;39.07;24.57;;;;;;;;;;4903651;28;20322;-64
2022/01/11 02:48:07;;;;;;;42.90;24.90;;;;;;;;;;4908284;28;20270;-63
2022/01/11 02:50:33;;;;;;;44.07;25.40;;;;;;;;;;4908955;28;20231;-64
2022/01/11 02:52:59;;;;;;;39.30;24.83;;;;;;;;;;4875056;28;20727;-63
2022/01/11 02:55:25;;;;;;;41.60;25.63;;;;;;;;;;4910232;28;20287;-64
2022/01/11 02:57:51;;;;;;;41.67;26.10;;;;;;;;;;4900402;28;20785;-65
2022/01/11 03:00:19;;;;;;;42.40;25.50;;;;;;;;;;4887476;28;20271;-64
2022/01/11 03:02:45;;;;;;;37.70;25.03;;;;;;;;;;4910756;28;20750;-64
2022/01/11 03:05:11;;;;;;;43.53;26.13;;;;;;;;;;4884691;28;20665;-64
2022/01/11 03:07:38;;;;;;;41.00;26.40;;;;;;;;;;4906462;28;20244;-63
2022/01/11 03:10:17;;;;;;;43.37;25.83;;;;;;;;;;4902593;28;20334;-64
2022/01/11 03:12:43;;;;;;;41.50;25.03;;;;;;;;;;4904964;28;20671;-65
2022/01/11 03:15:09;;;;;;;41.93;26.57;;;;;;;;;;4877440;28;20422;-66
2022/01/11 03:17:35;;;;;;;41.37;25.77;;;;;;;;;;4897791;28;20603;-64
2022/01/11 03:20:01;;;;;;;41.10;25.87;;;;;;;;;;4905869;28;20243;-65
2022/01/11 03:22:27;;;;;;;41.70;25.17;;;;;;;;;;4892170;28;20304;-64
2022/01/11 03:24:53;;;;;;;39.47;25.47;;;;;;;;;;4899278;28;20743;-65
2022/01/11 03:27:19;;;;;;;44.50;25.70;;;;;;;;;;4888230;28;20239;-65
2022/01/11 03:29:45;;;;;;;41.57;25.10;;;;;;;;;;4913237;28;20811;-65
2022/01/11 03:32:12;;;;;;;41.60;25.53;;;;;;;;;;4894175;28;20373;-65
2022/01/11 03:34:41;;;;;;;40.13;26.23;;;;;;;;;;4881769;28;20552;-65
2022/01/11 03:37:07;;;;;;;40.47;25.23;;;;;;;;;;4906900;28;20950;-65
2022/01/11 03:39:33;;;;;;;42.00;26.93;;;;;;;;;;4907763;28;20768;-64
2022/01/11 03:41:59;;;;;;;41.27;25.17;;;;;;;;;;4884955;28;20242;-64
2022/01/11 03:44:25;;;;;;;41.43;25.53;;;;;;;;;;4896224;28;20249;-65
2022/01/11 03:46:51;;;;;;;40.63;25.70;;;;;;;;;;4880413;28;20232;-65
2022/01/11 03:49:17;;;;;;;43.30;26.90;;;;;;;;;;4904205;28;20232;-65
2022/01/11 03:51:45;;;;;;;44.33;26.47;;;;;;;;;;4908485;28;20235;-66
2022/01/11 03:54:15;;;;;;;43.67;26.70;;;;;;;;;;4905285;28;20706;-65
2022/01/11 03:56:41;;;;;;;40.13;25.20;;;;;;;;;;4903830;28;20242;-65
2022/01/11 03:59:07;;;;;;;42.63;25.57;;;;;;;;;;4880489;28;20645;-64
2022/01/11 04:01:34;;;;;;;42.07;26.13;;;;;;;;;;4903749;28;20335;-66
2022/01/11 04:04:00;;;;;;;47.00;26.97;;;;;;;;;;4903786;28;20247;-65
2022/01/11 04:06:27;;;;;;;39.83;25.17;;;;;;;;;;4903117;28;20227;-64
2022/01/11 04:08:53;;;;;;;38.27;25.03;;;;;;;;;;4916967;28;20326;-65
2022/01/11 04:11:19;;;;;;;41.47;25.73;;;;;;;;;;4884073;28;20247;-64
2022/01/11 04:13:45;;;;;;;39.97;24.83;;;;;;;;;;4879640;28;20634;-63
2022/01/11 04:16:11;;;;;;;41.53;25.63;;;;;;;;;;4884680;28;20228;-64
2022/01/11 04:18:37;;;;;;;44.90;24.83;;;;;;;;;;4888494;28;20639;-64
2022/01/11 04:21:03;;;;;;;42.53;25.63;;;;;;;;;;4883726;28;20235;-64
2022/01/11 04:23:29;;;;;;;40.13;24.60;;;;;;;;;;4903270;28;20378;-65
2022/01/11 04:25:55;;;;;;;42.20;24.47;;;;;;;;;;4878590;28;20235;-64
2022/01/11 04:28:23;;;;;;;40.50;23.93;;;;;;;;;;4904135;28;20248;-65
2022/01/11 04:30:49;;;;;;;41.97;24.70;;;;;;;;;;4903748;28;20232;-65
2022/01/11 04:33:15;;;;;;;45.67;25.07;;;;;;;;;;4906248;28;20231;-65
2022/01/11 04:35:44;;;;;;;38.43;23.33;;;;;;;;;;4907958;28;20720;-65
2022/01/11 04:38:10;;;;;;;40.83;24.17;;;;;;;;;;4903769;28;20232;-65
2022/01/11 04:40:36;;;;;;;43.33;23.80;;;;;;;;;;4905795;28;20263;-64
2022/01/11 04:43:02;;;;;;;40.40;23.97;;;;;;;;;;4882440;28;22025;-64
2022/01/11 04:45:28;;;;;;;43.73;25.30;;;;;;;;;;4892051;28;20235;-65
2022/01/11 04:47:56;;;;;;;42.40;24.00;;;;;;;;;;4883643;28;20251;-65
2022/01/11 04:50:23;;;;;;;42.67;25.33;;;;;;;;;;4907600;28;20592;-65
2022/01/11 04:52:50;;;;;;;41.87;24.30;;;;;;;;;;4908563;28;20279;-64
2022/01/11 04:55:16;;;;;;;38.17;23.20;;;;;;;;;;4913199;28;20234;-63
2022/01/11 04:57:42;;;;;;;40.03;24.37;;;;;;;;;;4909674;28;20226;-64
2022/01/11 05:00:08;;;;;;;37.00;23.13;;;;;;;;;;4906680;28;20219;-64
2022/01/11 05:02:34;;;;;;;37.70;24.23;;;;;;;;;;4908112;28;20918;-64
2022/01/11 05:05:00;;;;;;;37.53;22.67;;;;;;;;;;4906581;28;20231;-64
2022/01/11 05:07:26;;;;;;;42.43;24.20;;;;;;;;;;4888162;28;20523;-65
2022/01/11 05:09:53;;;;;;;39.57;24.20;;;;;;;;;;4914114;28;20246;-63
2022/01/11 05:12:19;;;;;;;42.97;24.97;;;;;;;;;;4891087;28;20258;-64
2022/01/11 05:14:45;;;;;;;43.43;24.77;;;;;;;;;;4914549;28;20240;-65
2022/01/11 05:17:11;;;;;;;40.53;23.97;;;;;;;;;;4909245;28;20244;-65
2022/01/11 05:19:37;;;;;;;39.03;23.43;;;;;;;;;;4907927;28;20258;-65
2022/01/11 05:22:03;;;;;;;40.20;24.70;;;;;;;;;;4881652;28;20303;-63
2022/01/11 05:24:29;;;;;;;40.87;24.40;;;;;;;;;;4902940;28;20326;-64
2022/01/11 05:26:55;;;;;;;43.33;23.93;;;;;;;;;;4907891;28;20232;-64
2022/01/11 05:29:21;;;;;;;50.93;25.77;;;;;;;;;;4884636;28;20244;-66
2022/01/11 05:31:47;;;;;;;40.00;24.30;;;;;;;;;;4903764;28;20342;-64
2022/01/11 05:34:13;;;;;;;39.20;25.37;;;;;;;;;;4904487;28;20705;-65
2022/01/11 05:36:39;;;;;;;41.37;24.17;;;;;;;;;;4875199;28;20252;-65
2022/01/11 05:39:05;;;;;;;44.23;24.40;;;;;;;;;;4918718;28;20262;-64
2022/01/11 05:41:32;;;;;;;41.27;23.67;;;;;;;;;;4895900;28;20228;-64
2022/01/11 05:43:58;;;;;;;42.80;24.13;;;;;;;;;;4890736;28;20239;-64
2022/01/11 05:46:23;;;;;;;38.70;24.67;;;;;;;;;;4892906;28;20597;-65
2022/01/11 05:48:49;;;;;;;40.00;24.57;;;;;;;;;;4911317;28;20229;-66
2022/01/11 05:51:15;;;;;;;38.73;24.20;;;;;;;;;;4890688;28;20247;-65
2022/01/11 05:53:42;;;;;;;42.00;24.30;;;;;;;;;;4890450;28;21774;-64
2022/01/11 05:56:08;;;;;;;43.63;24.90;;;;;;;;;;4881415;28;20233;-65
2022/01/11 05:58:34;;;;;;;40.60;23.77;;;;;;;;;;4880050;28;20240;-65
2022/01/11 06:01:00;;;;;;;42.40;24.77;;;;;;;;;;4881297;28;20699;-64
2022/01/11 06:03:26;;;;;;;40.80;24.93;;;;;;;;;;4908159;28;20300;-66
2022/01/11 06:05:52;;;;;;;39.43;23.80;;;;;;;;;;4879519;28;20239;-66
2022/01/11 06:08:18;;;;;;;39.23;23.13;;;;;;;;;;4888849;28;20252;-65
2022/01/11 06:10:44;;;;;;;36.10;23.40;;;;;;;;;;4881761;28;20231;-65
2022/01/11 06:13:10;;;;;;;36.80;22.40;;;;;;;;;;4899569;28;20232;-66
2022/01/11 06:15:36;;;;;;;54.10;23.93;;;;;;;;;;4875662;28;20232;-62
2022/01/11 06:18:03;;;;;;;37.63;22.17;;;;;;;;;;4880842;28;20939;-62
2022/01/11 06:20:29;;;;;;;38.60;22.57;;;;;;;;;;4910678;28;20232;-62
2022/01/11 06:22:55;;;;;;;36.70;23.20;;;;;;;;;;4910771;28;20582;-62
2022/01/11 06:25:21;;;;;;;37.03;24.10;;;;;;;;;;4909269;28;20547;-60
2022/01/11 06:27:47;;;;;;;38.70;23.37;;;;;;;;;;4913763;28;20281;-60
2022/01/11 06:30:13;;;;;;;36.17;21.90;;;;;;;;;;4896441;28;20311;-62
2022/01/11 06:32:43;;;;;;;36.70;22.30;;;;;;;;;;4891291;28;20240;-61
2022/01/11 06:35:09;;;;;;;39.50;22.53;;;;;;;;;;4877136;28;20223;-62
2022/01/11 06:37:35;;;;;;;34.77;21.70;;;;;;;;;;4903596;28;20231;-59
2022/01/11 06:40:02;;;;;;;35.10;22.93;;;;;;;;;;4897287;28;20807;-63
2022/01/11 06:42:28;;;;;;;38.43;23.03;;;;;;;;;;4906774;28;20232;-61
2022/01/11 06:44:54;;;;;;;34.80;21.20;;;;;;;;;;4900469;28;20838;-59
2022/01/11 06:47:26;;;;;;;36.50;21.97;;;;;;;;;;4893699;28;20250;-63
2022/01/11 06:49:52;;;;;;;38.67;22.83;;;;;;;;;;4904344;28;20711;-62
2022/01/11 06:52:18;;;;;;;38.90;23.13;;;;;;;;;;4908383;28;20243;-62
2022/01/11 06:54:44;;;;;;;38.90;23.27;;;;;;;;;;4905397;28;21012;-65
2022/01/11 06:57:10;;;;;;;38.90;22.43;;;;;;;;;;4915185;28;20247;-61
2022/01/11 06:59:37;;;;;;;35.97;22.50;;;;;;;;;;4904307;28;20943;-61
2022/01/11 07:02:05;;;;;;;38.90;22.63;;;;;;;;;;4893439;28;20333;-62
2022/01/11 07:04:31;;;;;;;34.53;21.33;;;;;;;;;;4906688;28;20235;-62
2022/01/11 07:06:57;;;;;;;36.93;22.63;;;;;;;;;;4915733;28;20259;-62
2022/01/11 07:09:23;;;;;;;33.13;21.07;;;;;;;;;;4895826;28;20244;-61
2022/01/11 07:11:50;;;;;;;36.73;21.60;;;;;;;;;;4905482;28;20352;-62
2022/01/11 07:14:15;;;;;;;39.80;25.13;;;;;;;;;;4899157;28;20461;-62
2022/01/11 07:16:43;;;;;;;35.83;21.83;;;;;;;;;;4902551;28;21079;-62
2022/01/11 07:19:09;;;;;;;36.00;21.33;;;;;;;;;;4912057;28;20504;-62
2022/01/11 07:21:35;;;;;;;39.13;22.90;;;;;;;;;;4909497;28;20225;-63
2022/01/11 07:24:02;;;;;;;36.23;22.83;;;;;;;;;;4911378;28;20246;-62
2022/01/11 07:26:28;;;;;;;39.57;23.03;;;;;;;;;;4909117;28;20835;-62
2022/01/11 07:28:54;;;;;;;36.93;21.37;;;;;;;;;;4917603;28;20236;-62
2022/01/11 07:31:20;;;;;;;37.17;20.43;;;;;;;;;;4914343;28;20255;-61
2022/01/11 07:33:46;;;;;;;36.70;21.73;;;;;;;;;;4913773;28;20738;-63
2022/01/11 07:36:13;;;;;;;34.03;20.70;;;;;;;;;;4914692;28;20400;-62
2022/01/11 07:38:39;;;;;;;37.07;21.57;;;;;;;;;;4913482;28;20283;-61
2022/01/11 07:41:05;;;;;;;39.47;22.53;;;;;;;;;;4910474;28;20246;-61
2022/01/11 07:43:31;;;;;;;37.93;21.73;;;;;;;;;;4917513;28;20243;-62
2022/01/11 07:45:57;;;;;;;35.80;21.07;;;;;;;;;;4915033;28;20235;-62
2022/01/11 07:48:23;;;;;;;34.43;21.37;;;;;;;;;;4911071;28;20274;-62
2022/01/11 07:50:49;;;;;;;34.37;21.20;;;;;;;;;;4901872;28;21037;-61
2022/01/11 07:53:15;;;;;;;32.80;19.73;;;;;;;;;;4894161;28;20232;-62
2022/01/11 07:55:41;;;;;;;40.83;22.77;;;;;;;;;;4897565;28;20236;-62
2022/01/11 07:58:07;;;;;;;35.67;21.90;;;;;;;;;;4893793;28;20263;-63
2022/01/11 08:00:33;;;;;;;35.83;21.83;;;;;;;;;;4911846;28;20603;-62
2022/01/11 08:02:59;;;;;;;36.17;21.90;;;;;;;;;;4919156;28;20279;-62
2022/01/11 08:05:25;;;;;;;34.93;20.63;;;;;;;;;;4914313;28;20581;-61
2022/01/11 08:07:51;;;;;;;34.07;21.57;;;;;;;;;;4921055;28;20707;-63
2022/01/11 08:10:18;;;;;;;36.27;21.43;;;;;;;;;;4920522;28;20635;-62
2022/01/11 08:12:44;;;;;;;35.17;20.43;;;;;;;;;;4905854;28;20220;-63
2022/01/11 08:15:10;;;;;;;37.00;21.20;;;;;;;;;;4915089;28;20236;-63
2022/01/11 08:17:36;;;;;;;35.87;21.33;;;;;;;;;;4913353;28;20231;-63
2022/01/11 08:20:03;;;;;;;33.30;20.33;;;;;;;;;;4909709;28;20241;-62
2022/01/11 08:22:29;;;;;;;34.67;20.13;;;;;;;;;;4907391;28;20319;-64
2022/01/11 08:24:55;;;;;;;35.10;19.57;;;;;;;;;;4917027;28;20238;-62
2022/01/11 08:27:22;;;;;;;33.73;20.40;;;;;;;;;;4911988;28;20238;-63
2022/01/11 08:29:48;;;;;;;32.17;19.73;;;;;;;;;;4912420;28;20242;-63
2022/01/11 08:32:14;;;;;;;34.87;21.20;;;;;;;;;;4910761;28;20285;-62
2022/01/11 08:34:41;;;;;;;33.20;20.87;;;;;;;;;;4896638;28;20239;-62
2022/01/11 08:37:08;;;;;;;30.67;19.80;;;;;;;;;;4907300;28;20318;-62
2022/01/11 08:39:34;;;;;;;37.73;21.00;;;;;;;;;;4906024;28;20236;-63
2022/01/11 08:42:00;;;;;;;32.20;20.70;;;;;;;;;;4906608;28;20774;-62
2022/01/11 08:44:26;;;;;;;35.30;20.63;;;;;;;;;;4916378;28;20257;-62
2022/01/11 08:46:52;;;;;;;36.03;21.30;;;;;;;;;;4909357;28;20834;-63
2022/01/11 08:49:18;;;;;;;35.67;22.50;;;;;;;;;;4912850;28;20734;-63
2022/01/11 08:51:44;;;;;;;36.43;21.63;;;;;;;;;;4907375;28;20232;-62
2022/01/11 08:54:11;;;;;;;36.97;20.40;;;;;;;;;;4911534;28;20236;-62
2022/01/11 08:56:37;;;;;;;34.93;21.13;;;;;;;;;;4902635;28;20239;-62
2022/01/11 08:59:03;;;;;;;36.10;20.23;;;;;;;;;;4902352;28;20238;-61
2022/01/11 09:01:31;;;;;;;35.73;21.33;;;;;;;;;;4910748;28;20709;-63
2022/01/11 09:03:57;;;;;;;34.87;21.60;;;;;;;;;;4911043;28;20254;-64
2022/01/11 09:06:23;;;;;;;34.33;21.70;;;;;;;;;;4911134;28;20686;-63
2022/01/11 09:08:49;;;;;;;36.63;21.33;;;;;;;;;;4908791;28;20236;-63
2022/01/11 09:11:15;;;;;;;35.93;21.87;;;;;;;;;;4903684;28;20684;-62
2022/01/11 09:13:41;;;;;;;39.30;21.97;;;;;;;;;;4900287;28;20682;-64
2022/01/11 09:16:07;;;;;;;35.60;21.40;;;;;;;;;;4901639;28;20235;-62
2022/01/11 09:18:34;;;;;;;32.03;20.07;;;;;;;;;;4920654;28;20801;-63
2022/01/11 09:21:00;;;;;;;41.07;22.33;;;;;;;;;;4915330;28;20664;-63
2022/01/11 09:23:27;;;;;;;37.13;21.63;;;;;;;;;;4918501;28;20242;-62
2022/01/11 09:25:53;;;;;;;41.10;22.17;;;;;;;;;;4918748;28;20299;-64
2022/01/11 09:28:19;;;;;;;39.43;21.80;;;;;;;;;;4919888;28;20243;-62
2022/01/11 09:30:45;;;;;;;37.67;21.30;;;;;;;;;;4916566;28;20684;-63
2022/01/11 09:33:11;;;;;;;36.10;20.73;;;;;;;;;;4915402;28;20901;-63
2022/01/11 09:35:37;;;;;;;37.20;21.30;;;;;;;;;;4925162;28;20248;-61
2022/01/11 09:38:03;;;;;;;37.33;21.50;;;;;;;;;;4914538;28;20313;-63
2022/01/11 09:40:29;;;;;;;36.17;21.80;;;;;;;;;;4910791;28;20258;-63
2022/01/11 09:42:55;;;;;;;39.43;22.33;;;;;;;;;;4906021;28;20291;-61
2022/01/11 09:45:20;;;;;;;39.10;22.30;;;;;;;;;;4913178;28;20240;-62
2022/01/11 09:47:47;;;;;;;39.83;23.33;;;;;;;;;;4907967;28;20378;-62
2022/01/11 09:50:13;;;;;;;39.27;21.60;;;;;;;;;;4884916;28;20238;-62
2022/01/11 09:52:39;;;;;;;39.70;22.53;;;;;;;;;;4901314;28;20255;-63
2022/01/11 09:55:05;;;;;;;36.40;21.47;;;;;;;;;;4906413;28;20306;-63
2022/01/11 09:57:32;;;;;;;37.43;21.17;;;;;;;;;;4914525;28;20298;-62
2022/01/11 09:59:58;;;;;;;36.53;21.17;;;;;;;;;;4904119;28;20239;-63
2022/01/11 10:02:24;;;;;;;38.40;22.73;;;;;;;;;;4897152;28;20232;-63
2022/01/11 10:04:55;;;;;;;36.90;22.23;;;;;;;;;;4897033;28;20630;-63
2022/01/11 10:07:21;;;;;;;40.80;22.23;;;;;;;;;;4902685;28;20228;-62
2022/01/11 10:09:50;;;;;;;38.83;22.67;;;;;;;;;;4875785;28;20335;-62
2022/01/11 10:12:18;;;;;;;37.67;21.83;;;;;;;;;;4904436;28;20240;-63
2022/01/11 10:14:49;;;;;;;38.77;21.53;;;;;;;;;;4898368;28;20333;-63
2022/01/11 10:17:17;;;;;;;37.93;23.03;;;;;;;;;;4909017;28;20258;-63
2022/01/11 10:19:44;;;;;;;43.53;24.13;;;;;;;;;;4913825;28;20243;-63
2022/01/11 10:22:11;;;;;;;39.30;22.87;;;;;;;;;;4910400;28;20243;-62
2022/01/11 10:24:39;;;;;;;40.20;23.53;;;;;;;;;;4890471;28;20299;-62
2022/01/11 10:27:14;;;;;;;39.03;23.00;;;;;;;;;;4916156;28;20231;-62
2022/01/11 10:29:44;;;;;;;40.10;22.87;;;;;;;;;;4918287;28;20736;-64
2022/01/11 10:32:18;;;;;;;37.73;23.23;;;;;;;;;;4914678;28;20240;-62
2022/01/11 10:34:47;;;;;;;39.57;23.53;;;;;;;;;;4913664;28;20236;-63
2022/01/11 10:37:13;;;;;;;36.10;22.43;;;;;;;;;;4907088;28;20245;-63
2022/01/11 10:39:40;;;;;;;37.63;22.10;;;;;;;;;;4886016;28;20239;-61
2022/01/11 10:42:06;;;;;;;37.87;23.00;;;;;;;;;;4920335;28;20243;-62
2022/01/11 10:44:42;;;;;;;37.27;23.40;;;;;;;;;;4915059;28;20236;-62
2022/01/11 10:47:08;;;;;;;38.47;23.07;;;;;;;;;;4915669;28;20247;-63
2022/01/11 10:49:35;;;;;;;36.57;21.77;;;;;;;;;;4911224;28;20232;-62
2022/01/11 10:52:17;;;;;;;36.77;22.33;;;;;;;;;;4907103;28;20244;-63
2022/01/11 10:54:43;;;;;;;38.60;23.07;;;;;;;;;;4912085;28;20261;-63
2022/01/11 10:57:19;;;;;;;40.20;24.40;;;;;;;;;;4912749;28;21018;-62
2022/01/11 10:59:46;;;;;;;35.40;21.63;;;;;;;;;;4907355;28;20322;-63
2022/01/11 11:02:13;;;;;;;39.33;22.83;;;;;;;;;;4898804;28;20240;-63
2022/01/11 11:04:39;;;;;;;36.33;21.77;;;;;;;;;;4915261;28;20353;-63
2022/01/11 11:07:14;;;;;;;36.33;21.83;;;;;;;;;;4914809;28;20259;-63
2022/01/11 11:09:46;;;;;;;38.03;22.67;;;;;;;;;;4914061;28;20231;-63
2022/01/11 11:12:14;;;;;;;37.63;22.73;;;;;;;;;;4917545;28;20314;-63
2022/01/11 11:14:55;;;;;;;40.60;23.47;;;;;;;;;;4914505;28;20226;-63
2022/01/11 11:17:25;;;;;;;36.13;22.60;;;;;;;;;;4884035;28;20247;-62
2022/01/11 11:19:55;;;;;;;36.63;23.90;;;;;;;;;;4890270;28;20330;-63
2022/01/11 11:22:21;;;;;;;40.83;24.13;;;;;;;;;;4906328;28;20740;-63
2022/01/11 11:24:47;;;;;;;41.50;23.03;;;;;;;;;;4917579;28;20241;-63
2022/01/11 11:27:15;;;;;;;38.33;23.03;;;;;;;;;;4906744;28;20441;-63
2022/01/11 11:29:42;;;;;;;38.50;22.37;;;;;;;;;;4901587;28;20279;-63
2022/01/11 11:32:08;;;;;;;38.27;23.33;;;;;;;;;;4913192;28;20243;-62
2022/01/11 11:34:34;;;;;;;37.20;22.87;;;;;;;;;;4914909;28;20721;-62
2022/01/11 11:37:05;;;;;;;40.17;24.10;;;;;;;;;;4911912;28;25436;-63
2022/01/11 11:39:31;;;;;;;40.80;24.90;;;;;;;;;;4917630;28;20236;-63
2022/01/11 11:41:59;;;;;;;42.63;24.40;;;;;;;;;;4906779;28;20243;-62
2022/01/11 11:44:26;;;;;;;42.40;24.80;;;;;;;;;;4870851;28;20224;-62
2022/01/11 11:46:53;;;;;;;40.03;25.00;;;;;;;;;;4905050;28;21766;-63
2022/01/11 11:49:38;;;;;;;42.63;25.57;;;;;;;;;;4908401;28;20887;-63
2022/01/11 11:52:27;;;;;;;40.03;24.30;;;;;;;;;;4907303;28;20808;-63
2022/01/11 11:55:01;;;;;;;44.00;25.00;;;;;;;;;;4904907;28;20240;-63
2022/01/11 11:57:31;;;;;;;41.13;25.07;;;;;;;;;;4913529;28;20294;-63
2022/01/11 11:59:58;;;;;;;42.33;24.90;;;;;;;;;;4917455;28;20236;-63
2022/01/11 12:02:31;;;;;;;43.63;25.07;;;;;;;;;;4913613;28;20327;-63
2022/01/11 12:04:57;;;;;;;44.17;25.60;;;;;;;;;;4912536;28;20670;-62
2022/01/11 12:07:29;;;;;;;46.83;26.57;;;;;;;;;;4919310;28;20275;-63
2022/01/11 12:09:55;;;;;;;45.17;25.90;;;;;;;;;;4912233;28;20261;-62
2022/01/11 12:12:40;;;;;;;45.30;25.87;;;;;;;;;;4917222;28;20362;-63
2022/01/11 12:15:33;;;;;;;43.03;26.07;;;;;;;;;;4921936;28;20236;-63
2022/01/11 12:18:05;;;;;;;47.40;26.23;;;;;;;;;;4907441;28;20248;-62
2022/01/11 12:20:51;;;;;;;41.30;25.97;;;;;;;;;;4910698;28;20781;-62
2022/01/11 12:23:35;;;;;;;44.03;26.40;;;;;;;;;;4909797;28;20240;-63
2022/01/11 12:26:13;;;;;;;40.37;25.37;;;;;;;;;;4913641;28;20274;-60
2022/01/11 12:28:39;;;;;;;39.77;24.77;;;;;;;;;;4914624;28;20800;-63
2022/01/11 12:31:24;;;;;;;44.43;24.83;;;;;;;;;;4902012;28;20223;-63
2022/01/11 12:33:50;;;;;;;46.97;26.27;;;;;;;;;;4905886;28;24007;-64
2022/01/11 12:36:16;;;;;;;46.47;26.03;;;;;;;;;;4906771;28;20839;-64
2022/01/11 12:38:59;;;;;;;45.33;26.20;;;;;;;;;;4923684;28;20299;-64
2022/01/11 12:41:29;;;;;;;43.63;27.27;;;;;;;;;;4914276;28;20242;-63
2022/01/11 12:44:14;;;;;;;46.27;27.20;;;;;;;;;;4917515;28;20237;-63
2022/01/11 12:46:57;;;;;;;56.83;26.73;;;;;;;;;;4913904;28;20262;-63
2022/01/11 12:49:23;;;;;;;49.17;28.53;;;;;;;;;;4912745;28;20321;-64
2022/01/11 12:52:09;;;;;;;48.90;27.60;;;;;;;;;;4916828;28;20700;-62
2022/01/11 12:54:49;;;;;;;47.83;26.73;;;;;;;;;;4916261;28;20258;-62
2022/01/11 12:57:15;;;;;;;51.50;27.43;;;;;;;;;;4918633;28;20226;-63
2022/01/11 12:59:51;;;;;;;46.73;26.07;;;;;;;;;;4914895;28;20243;-63
2022/01/11 13:02:18;;;;;;;58.97;28.10;;;;;;;;;;4920523;28;20242;-63
2022/01/11 13:04:45;;;;;;;54.47;29.00;;;;;;;;;;4920938;28;20314;-63
2022/01/11 13:07:12;;;;;;;49.97;28.27;;;;;;;;;;4911670;28;20319;-63
2022/01/11 13:09:38;;;;;;;47.63;28.10;;;;;;;;;;4904841;28;20227;-62
2022/01/11 13:12:04;;;;;;;51.30;28.27;;;;;;;;;;4884643;28;20509;-61
2022/01/11 13:14:37;;;;;;;49.90;28.23;;;;;;;;;;4914604;28;20943;-62
2022/01/11 13:17:03;;;;;;;55.93;29.67;;;;;;;;;;4899371;28;20244;-62
2022/01/11 13:19:33;;;;;;;47.23;28.33;;;;;;;;;;4916356;28;20583;-62
2022/01/11 13:22:04;;;;;;;54.70;29.03;;;;;;;;;;4911429;28;20228;-62
2022/01/11 13:24:35;;;;;;;50.53;28.30;;;;;;;;;;4925243;28;20231;-63
2022/01/11 13:27:01;;;;;;;51.83;28.20;;;;;;;;;;4922387;28;20231;-63
2022/01/11 13:29:29;;;;;;;50.07;29.77;;;;;;;;;;4920322;28;20700;-63
2022/01/11 13:31:55;;;;;;;45.07;28.17;;;;;;;;;;4921134;28;20232;-63
2022/01/11 13:34:22;;;;;;;56.67;27.50;;;;;;;;;;4921571;28;20235;-63
2022/01/11 13:36:48;;;;;;;52.30;27.17;;;;;;;;;;4913688;28;20239;-63
2022/01/11 13:39:15;;;;;;;52.57;27.47;;;;;;;;;;4894169;28;20224;-62
2022/01/11 13:41:48;;;;;;;44.90;25.17;;;;;;;;;;4901959;28;20232;-63
2022/01/11 13:44:18;;;;;;;42.60;24.33;;;;;;;;;;4907392;28;21064;-62
2022/01/11 13:46:50;;;;;;;46.13;24.90;;;;;;;;;;4914913;28;21833;-64
2022/01/11 13:49:23;;;;;;;42.23;23.83;;;;;;;;;;4918615;28;20654;-63
2022/01/11 13:51:50;;;;;;;36.73;21.87;;;;;;;;;;4886093;28;20244;-68
2022/01/11 13:54:16;;;;;;;37.30;22.70;;;;;;;;;;4911106;28;20277;-62
2022/01/11 13:56:44;;;;;;;36.00;20.97;;;;;;;;;;4915256;28;20238;-63
2022/01/11 13:59:11;;;;;;;34.50;20.70;;;;;;;;;;4914824;28;20240;-63
2022/01/11 14:01:38;;;;;;;34.83;21.10;;;;;;;;;;4908379;28;21500;-63
2022/01/11 14:04:07;;;;;;;34.13;19.70;;;;;;;;;;4905922;28;20268;-65
2022/01/11 14:06:48;;;;;;;33.40;20.53;;;;;;;;;;4901995;28;20231;-64
2022/01/11 14:09:22;;;;;;;32.73;18.67;;;;;;;;;;4906321;28;20384;-65
2022/01/11 14:12:05;;;;;;;32.83;19.77;;;;;;;;;;4916386;28;20685;-66
2022/01/11 14:14:31;;;;;;;34.00;20.87;;;;;;;;;;4917002;28;20650;-66
2022/01/11 14:16:57;;;;;;;38.83;21.27;;;;;;;;;;4886420;28;20263;-66
2022/01/11 14:19:24;;;;;;;34.07;20.27;;;;;;;;;;4917723;28;20230;-65
2022/01/11 14:21:53;;;;;;;36.47;20.40;;;;;;;;;;4921250;28;20253;-61
2022/01/11 14:24:19;;;;;;;37.13;20.57;;;;;;;;;;4917291;28;20239;-67